Time;durP1;ratioP1;P1;durP2;ratioP2;P2;SDS_P1;SDS_P2;PMS_P1;PMS_P2;Temp;Humidity;BMP_temperature;BMP_pressure;BME280_temperature;BME280_humidity;BME280_pressure;Samples;Min_cycle;Max_cycle;Signal;HPM_P1;HPM_P2
2024/04/16 00:01:10;;;;;;;1.03;0.40;;;6.80;96.50;;;;;;5379199;26;20751;-63
2024/04/16 00:03:36;;;;;;;0.50;0.50;;;6.70;96.60;;;;;;5379625;26;20302;-62
2024/04/16 00:06:02;;;;;;;0.40;0.40;;;6.70;97.00;;;;;;5379630;26;20218;-62
2024/04/16 00:08:27;;;;;;;0.40;0.40;;;6.70;96.90;;;;;;5348662;26;20459;-62
2024/04/16 00:11:00;;;;;;;0.40;0.40;;;6.50;96.40;;;;;;5382392;26;20302;-63
2024/04/16 00:13:25;;;;;;;0.50;0.50;;;6.40;96.70;;;;;;5382795;26;20284;-63
2024/04/16 00:15:51;;;;;;;0.40;0.40;;;6.40;97.00;;;;;;5382853;26;20218;-63
2024/04/16 00:18:16;;;;;;;0.60;0.60;;;6.30;96.70;;;;;;5382830;26;20270;-62
2024/04/16 00:20:42;;;;;;;1.50;0.40;;;6.30;97.10;;;;;;5351477;26;20216;-63
2024/04/16 00:23:07;;;;;;;1.23;0.53;;;6.30;96.40;;;;;;5382780;26;20236;-62
2024/04/16 00:25:33;;;;;;;0.50;0.50;;;6.20;96.80;;;;;;5382792;26;20333;-62
2024/04/16 00:27:59;;;;;;;0.70;0.70;;;6.20;96.70;;;;;;5382824;26;20212;-62
2024/04/16 00:30:25;;;;;;;0.40;0.40;;;6.20;96.40;;;;;;5382302;26;20765;-63
2024/04/16 00:32:51;;;;;;;0.50;0.50;;;6.10;96.20;;;;;;5382545;26;20221;-63
2024/04/16 00:35:16;;;;;;;0.40;0.40;;;6.00;96.00;;;;;;5382634;26;20220;-62
2024/04/16 00:37:42;;;;;;;0.40;0.40;;;5.90;96.70;;;;;;5382515;26;20446;-62
2024/04/16 00:40:08;;;;;;;0.50;0.50;;;5.80;96.70;;;;;;5322602;26;20232;-62
2024/04/16 00:42:34;;;;;;;3.20;0.50;;;5.80;96.80;;;;;;5382620;26;20220;-63
2024/04/16 00:44:59;;;;;;;0.70;0.60;;;5.70;96.80;;;;;;5382415;26;20628;-62
2024/04/16 00:47:25;;;;;;;2.27;0.43;;;5.70;97.00;;;;;;5382765;26;20262;-62
2024/04/16 00:49:52;;;;;;;0.70;0.53;;;5.60;97.20;;;;;;5381419;26;20307;-62
2024/04/16 00:52:18;;;;;;;0.40;0.40;;;5.60;97.20;;;;;;5346556;26;20696;-63
2024/04/16 00:54:45;;;;;;;0.30;0.30;;;5.50;97.00;;;;;;5347264;26;20255;-63
2024/04/16 00:57:11;;;;;;;0.50;0.50;;;5.60;97.20;;;;;;5347640;26;20463;-62
2024/04/16 00:59:38;;;;;;;0.40;0.40;;;5.60;96.80;;;;;;5347445;26;20761;-62
2024/04/16 01:02:04;;;;;;;0.82;0.40;;;5.50;97.10;;;;;;5347190;26;20536;-62
2024/04/16 01:04:30;;;;;;;0.50;0.50;;;5.30;97.80;;;;;;5347259;26;20632;-62
2024/04/16 01:06:56;;;;;;;0.50;0.50;;;5.30;97.90;;;;;;5347559;26;20265;-62
2024/04/16 01:09:22;;;;;;;0.85;0.50;;;5.30;98.20;;;;;;5345786;26;20230;-62
2024/04/16 01:11:48;;;;;;;1.37;0.50;;;5.30;98.00;;;;;;5345168;26;20214;-63
2024/04/16 01:14:14;;;;;;;0.40;0.40;;;5.30;98.00;;;;;;5346965;26;20505;-63
2024/04/16 01:16:39;;;;;;;1.42;0.60;;;5.20;98.00;;;;;;5347179;26;20327;-62
2024/04/16 01:19:09;;;;;;;0.40;0.40;;;5.30;98.30;;;;;;5347051;26;20229;-63
2024/04/16 01:21:34;;;;;;;0.50;0.50;;;5.40;98.20;;;;;;5315380;26;20501;-63
2024/04/16 01:24:00;;;;;;;0.70;0.70;;;5.40;98.20;;;;;;5346794;26;20230;-63
2024/04/16 01:26:26;;;;;;;1.13;0.60;;;5.40;98.20;;;;;;5346816;26;20516;-63
2024/04/16 01:28:51;;;;;;;1.80;1.03;;;5.50;98.40;;;;;;5346971;26;20228;-62
2024/04/16 01:31:17;;;;;;;0.40;0.40;;;5.60;97.80;;;;;;5346744;26;20222;-63
2024/04/16 01:33:43;;;;;;;0.55;0.40;;;5.60;97.60;;;;;;5345811;26;20282;-63
2024/04/16 01:36:08;;;;;;;0.40;0.40;;;5.50;97.40;;;;;;5315198;26;20719;-63
2024/04/16 01:38:34;;;;;;;0.40;0.40;;;5.20;97.70;;;;;;5344398;26;20234;-63
2024/04/16 01:41:02;;;;;;;0.50;0.50;;;4.90;98.10;;;;;;5345973;26;20324;-63
2024/04/16 01:43:27;;;;;;;0.40;0.40;;;4.90;98.30;;;;;;5346006;26;20272;-63
2024/04/16 01:45:53;;;;;;;0.40;0.40;;;4.80;98.30;;;;;;5346488;26;20225;-63
2024/04/16 01:48:19;;;;;;;0.40;0.40;;;4.90;98.60;;;;;;5346572;26;20218;-63
2024/04/16 01:50:45;;;;;;;0.37;0.37;;;4.90;98.40;;;;;;5346112;26;20218;-63
2024/04/16 01:53:11;;;;;;;0.40;0.40;;;4.80;98.30;;;;;;5346669;26;20233;-63
2024/04/16 01:55:38;;;;;;;0.30;0.30;;;4.60;98.40;;;;;;5346382;26;20214;-63
2024/04/16 01:58:04;;;;;;;0.30;0.30;;;4.60;98.70;;;;;;5346500;26;20217;-63
2024/04/16 02:00:30;;;;;;;0.40;0.40;;;4.30;98.90;;;;;;5345957;26;20259;-63
2024/04/16 02:02:57;;;;;;;0.87;0.60;;;4.10;99.50;;;;;;5346421;26;20444;-63
2024/04/16 02:05:22;;;;;;;0.40;0.40;;;4.10;99.80;;;;;;5346528;26;20214;-63
2024/04/16 02:07:48;;;;;;;0.60;0.40;;;4.20;99.90;;;;;;5346289;26;20214;-63
2024/04/16 02:10:13;;;;;;;0.40;0.40;;;4.10;99.90;;;;;;5345920;26;20218;-63
2024/04/16 02:12:40;;;;;;;1.73;0.97;;;4.20;99.80;;;;;;5346292;26;20217;-63
2024/04/16 02:15:06;;;;;;;0.90;0.77;;;4.30;99.90;;;;;;5346133;26;20325;-63
2024/04/16 02:17:32;;;;;;;0.60;0.50;;;4.50;99.80;;;;;;5346263;26;20334;-63
2024/04/16 02:19:57;;;;;;;0.90;0.40;;;4.70;99.30;;;;;;5346001;26;20235;-63
2024/04/16 02:22:23;;;;;;;1.03;0.73;;;4.80;99.00;;;;;;5346144;26;20327;-63
2024/04/16 02:24:49;;;;;;;0.77;0.60;;;4.80;99.00;;;;;;5346111;26;20735;-63
2024/04/16 02:27:14;;;;;;;2.10;0.97;;;4.80;98.90;;;;;;5315703;26;20251;-63
2024/04/16 02:29:40;;;;;;;4.17;0.60;;;4.80;99.00;;;;;;5345943;26;20218;-63
2024/04/16 02:32:06;;;;;;;0.50;0.50;;;4.80;99.00;;;;;;5345381;26;20850;-63
2024/04/16 02:34:31;;;;;;;0.40;0.40;;;4.80;98.90;;;;;;5345438;26;20276;-62
2024/04/16 02:36:57;;;;;;;0.40;0.40;;;4.90;98.90;;;;;;5345894;26;20452;-63
2024/04/16 02:39:23;;;;;;;0.60;0.50;;;4.90;98.80;;;;;;5345949;26;20295;-62
2024/04/16 02:41:48;;;;;;;0.50;0.50;;;5.00;98.70;;;;;;5345663;26;20217;-63
2024/04/16 02:44:14;;;;;;;0.40;0.40;;;4.90;98.60;;;;;;5345809;26;20242;-63
2024/04/16 02:46:39;;;;;;;0.30;0.30;;;4.90;98.60;;;;;;5345984;26;20332;-63
2024/04/16 02:49:05;;;;;;;0.50;0.50;;;4.90;98.60;;;;;;5345728;26;20218;-63
2024/04/16 02:51:30;;;;;;;0.40;0.40;;;4.80;98.70;;;;;;5314957;26;20252;-63
2024/04/16 02:53:56;;;;;;;0.50;0.40;;;4.90;98.60;;;;;;5315209;26;20234;-63
2024/04/16 02:56:22;;;;;;;0.40;0.40;;;4.90;98.70;;;;;;5345748;26;20335;-63
2024/04/16 02:58:47;;;;;;;0.40;0.40;;;5.00;98.80;;;;;;5343843;26;20218;-63
2024/04/16 03:01:13;;;;;;;0.40;0.40;;;5.00;98.60;;;;;;5345327;26;20260;-63
2024/04/16 03:03:39;;;;;;;0.40;0.40;;;5.00;98.80;;;;;;5345391;26;20364;-63
2024/04/16 03:06:04;;;;;;;1.13;0.40;;;5.00;98.70;;;;;;5315014;26;20292;-63
2024/04/16 03:08:30;;;;;;;0.50;0.50;;;5.10;98.50;;;;;;5314983;26;20609;-63
2024/04/16 03:11:00;;;;;;;0.70;0.50;;;5.20;98.30;;;;;;5345387;26;20497;-63
2024/04/16 03:13:26;;;;;;;0.43;0.43;;;5.20;98.00;;;;;;5346083;26;20233;-63
2024/04/16 03:15:52;;;;;;;0.40;0.40;;;5.10;98.20;;;;;;5345776;26;20322;-63
2024/04/16 03:18:17;;;;;;;0.40;0.40;;;5.10;98.50;;;;;;5345592;26;20548;-63
2024/04/16 03:20:43;;;;;;;0.70;0.47;;;5.10;98.40;;;;;;5344861;26;20662;-63
2024/04/16 03:23:09;;;;;;;0.40;0.40;;;5.10;98.30;;;;;;5345303;26;20793;-63
2024/04/16 03:25:42;;;;;;;0.40;0.40;;;5.10;98.30;;;;;;5345373;26;20530;-63
2024/04/16 03:28:07;;;;;;;0.43;0.43;;;5.00;98.40;;;;;;5345580;26;20219;-63
2024/04/16 03:30:33;;;;;;;0.97;0.67;;;4.90;98.50;;;;;;5458716;21;20358;-62
2024/04/16 03:32:59;;;;;;;0.40;0.40;;;5.00;98.70;;;;;;5451600;26;20215;-62
2024/04/16 03:35:27;;;;;;;2.13;0.47;;;5.00;98.60;;;;;;5451552;26;20211;-61
2024/04/16 03:37:52;;;;;;;0.50;0.45;;;5.00;98.50;;;;;;5451462;26;20218;-62
2024/04/16 03:40:18;;;;;;;0.70;0.70;;;5.00;98.60;;;;;;5450998;26;20223;-63
2024/04/16 03:42:44;;;;;;;0.40;0.40;;;5.00;98.60;;;;;;5451386;26;20554;-62
2024/04/16 03:45:09;;;;;;;0.93;0.50;;;4.90;98.50;;;;;;5450685;26;20266;-62
2024/04/16 03:47:35;;;;;;;0.77;0.50;;;5.00;98.60;;;;;;5451179;26;20214;-62
2024/04/16 03:50:00;;;;;;;0.40;0.40;;;4.90;98.60;;;;;;5450830;26;20265;-61
2024/04/16 03:52:26;;;;;;;0.50;0.50;;;4.70;99.00;;;;;;5451332;26;20214;-62
2024/04/16 03:54:52;;;;;;;0.43;0.43;;;4.40;99.60;;;;;;5451289;26;20211;-62
2024/04/16 03:57:17;;;;;;;0.50;0.50;;;4.40;99.90;;;;;;5428713;26;20701;-62
2024/04/16 04:02:27;;;;;;;0.82;0.68;;;4.50;99.90;;;;;;5415287;26;21012;-62
2024/04/16 04:04:53;;;;;;;0.40;0.40;;;4.60;99.90;;;;;;5415094;26;20227;-62
2024/04/16 04:07:19;;;;;;;0.90;0.80;;;4.80;99.90;;;;;;5415065;26;20848;-62
2024/04/16 04:09:46;;;;;;;1.07;0.77;;;4.90;99.70;;;;;;5414760;26;20461;-62
2024/04/16 04:12:11;;;;;;;0.50;0.50;;;4.90;99.40;;;;;;5414542;26;20258;-62
2024/04/16 04:14:37;;;;;;;0.50;0.40;;;4.90;99.30;;;;;;5414922;26;20215;-61
2024/04/16 04:17:02;;;;;;;0.70;0.60;;;4.80;99.40;;;;;;5435942;26;20333;-62
2024/04/16 04:19:28;;;;;;;1.13;0.50;;;4.80;99.60;;;;;;5448809;26;20230;-62
2024/04/16 04:21:54;;;;;;;2.20;0.63;;;4.80;99.30;;;;;;5448997;26;20210;-62
2024/04/16 04:24:19;;;;;;;0.60;0.53;;;4.80;99.50;;;;;;5447620;26;20770;-62
2024/04/16 04:26:45;;;;;;;1.13;0.80;;;4.90;99.70;;;;;;5449822;26;20249;-62
2024/04/16 04:29:11;;;;;;;0.57;0.57;;;5.00;99.10;;;;;;5450437;26;20261;-61
2024/04/16 04:31:37;;;;;;;0.68;0.60;;;5.00;99.10;;;;;;5450438;26;20708;-62
2024/04/16 04:34:03;;;;;;;0.87;0.77;;;5.00;99.20;;;;;;5450500;26;20253;-62
2024/04/16 04:36:29;;;;;;;0.55;0.55;;;5.10;99.30;;;;;;5450378;26;20973;-62
2024/04/16 04:38:55;;;;;;;1.70;1.00;;;5.10;99.30;;;;;;5450257;26;20269;-62
2024/04/16 04:41:20;;;;;;;1.13;1.03;;;5.20;99.40;;;;;;5450092;26;20716;-62
2024/04/16 04:43:50;;;;;;;0.40;0.40;;;5.20;99.20;;;;;;5450162;26;20210;-62
2024/04/16 04:46:16;;;;;;;2.15;1.40;;;5.00;99.40;;;;;;5450217;26;20234;-62
2024/04/16 04:48:41;;;;;;;1.27;0.90;;;5.00;99.30;;;;;;5450178;26;20216;-62
2024/04/16 04:51:07;;;;;;;1.60;1.03;;;5.10;99.00;;;;;;5449809;26;20499;-62
2024/04/16 04:53:33;;;;;;;6.73;1.40;;;5.10;99.20;;;;;;5450481;26;20269;-63
2024/04/16 04:55:58;;;;;;;1.40;0.90;;;5.20;99.20;;;;;;5450769;26;20313;-62
2024/04/16 04:58:24;;;;;;;1.33;0.70;;;5.20;99.10;;;;;;5453513;26;20210;-62
2024/04/16 05:00:50;;;;;;;1.10;0.83;;;5.10;99.30;;;;;;5454263;26;20254;-65
2024/04/16 05:03:15;;;;;;;6.13;1.20;;;5.20;98.60;;;;;;5455529;26;20222;-65
2024/04/16 05:05:45;;;;;;;1.33;0.93;;;5.20;97.90;;;;;;5453677;26;20452;-64
2024/04/16 05:08:11;;;;;;;1.40;1.17;;;5.30;97.60;;;;;;5453657;26;20247;-64
2024/04/16 05:10:37;;;;;;;8.43;1.73;;;5.20;98.00;;;;;;5453053;26;20228;-64
2024/04/16 05:13:03;;;;;;;3.53;1.63;;;5.20;98.30;;;;;;5453459;26;20267;-64
2024/04/16 05:15:29;;;;;;;1.83;1.40;;;5.20;98.00;;;;;;5453415;26;20445;-64
2024/04/16 05:17:54;;;;;;;19.40;2.57;;;4.90;98.60;;;;;;5453413;26;20460;-64
2024/04/16 05:20:20;;;;;;;15.47;10.73;;;4.80;98.60;;;;;;5452495;26;20276;-65
2024/04/16 05:22:47;;;;;;;3.40;3.10;;;4.90;99.10;;;;;;5452493;26;20229;-64
2024/04/16 05:25:13;;;;;;;2.30;2.03;;;5.10;99.10;;;;;;5422250;26;20267;-64
2024/04/16 05:27:39;;;;;;;2.30;1.20;;;5.20;98.70;;;;;;5452826;26;20769;-64
2024/04/16 05:30:08;;;;;;;3.20;1.10;;;5.20;98.80;;;;;;5452850;26;20339;-64
2024/04/16 05:32:34;;;;;;;1.77;1.30;;;5.10;98.50;;;;;;5453165;26;20263;-63
2024/04/16 05:35:00;;;;;;;1.75;0.90;;;5.10;98.80;;;;;;5453287;26;20273;-64
2024/04/16 05:37:26;;;;;;;2.10;1.17;;;5.00;98.20;;;;;;5436141;26;20232;-64
2024/04/16 05:39:51;;;;;;;1.63;1.53;;;5.20;98.40;;;;;;5418335;26;20811;-64
2024/04/16 05:42:17;;;;;;;4.07;1.10;;;5.20;97.80;;;;;;5417450;26;20212;-64
2024/04/16 05:44:42;;;;;;;1.70;1.37;;;5.30;97.50;;;;;;5417627;26;20261;-65
2024/04/16 05:47:08;;;;;;;1.40;1.30;;;5.40;97.20;;;;;;5417388;26;20316;-64
2024/04/16 05:49:34;;;;;;;3.90;2.00;;;5.30;96.30;;;;;;5417605;26;20295;-64
2024/04/16 05:51:59;;;;;;;4.00;1.47;;;5.40;97.10;;;;;;5415228;26;20678;-64
2024/04/16 05:54:27;;;;;;;3.50;1.30;;;5.50;97.30;;;;;;5416122;26;20709;-65
2024/04/16 05:56:53;;;;;;;2.53;1.17;;;5.60;97.20;;;;;;5415316;26;20213;-65
2024/04/16 05:59:19;;;;;;;1.80;1.10;;;5.60;96.70;;;;;;5416911;26;20223;-65
2024/04/16 06:01:45;;;;;;;4.07;1.05;;;5.50;95.80;;;;;;5416800;26;20305;-64
2024/04/16 06:04:10;;;;;;;2.70;1.03;;;5.40;97.10;;;;;;5417107;26;20279;-64
2024/04/16 06:06:36;;;;;;;1.90;0.80;;;5.50;97.00;;;;;;5416558;26;20208;-64
2024/04/16 06:09:03;;;;;;;2.27;0.87;;;5.40;96.40;;;;;;5416798;26;20766;-64
2024/04/16 06:11:31;;;;;;;1.80;0.90;;;5.20;96.60;;;;;;5416488;26;20420;-64
2024/04/16 06:13:57;;;;;;;2.40;1.75;;;5.10;96.90;;;;;;5416730;26;20789;-65
2024/04/16 06:16:23;;;;;;;4.13;1.13;;;5.20;97.50;;;;;;5416679;26;20212;-65
2024/04/16 06:18:51;;;;;;;4.63;1.30;;;5.30;97.30;;;;;;5416748;26;20842;-64
2024/04/16 06:21:16;;;;;;;3.53;1.75;;;5.30;97.20;;;;;;5416185;26;20267;-64
2024/04/16 06:23:42;;;;;;;4.83;1.43;;;5.10;97.20;;;;;;5416708;26;20211;-64
2024/04/16 06:26:10;;;;;;;1.17;1.17;;;5.10;97.10;;;;;;5416652;26;20769;-64
2024/04/16 06:28:36;;;;;;;4.03;1.20;;;5.20;97.50;;;;;;5385001;26;20224;-64
2024/04/16 06:31:02;;;;;;;7.30;1.58;;;5.30;96.90;;;;;;5416181;26;20215;-64
2024/04/16 06:33:28;;;;;;;4.30;1.33;;;5.20;97.00;;;;;;5416654;26;20734;-63
2024/04/16 06:35:54;;;;;;;1.77;0.85;;;5.10;97.50;;;;;;5417353;26;20504;-64
2024/04/16 06:38:27;;;;;;;2.45;1.00;;;4.90;97.50;;;;;;5416846;26;20211;-64
2024/04/16 06:40:53;;;;;;;4.55;1.50;;;5.00;97.80;;;;;;5416180;26;20219;-64
2024/04/16 06:43:18;;;;;;;2.03;1.53;;;5.00;98.40;;;;;;5416420;26;20208;-64
2024/04/16 06:45:44;;;;;;;2.00;1.33;;;4.90;98.40;;;;;;5416269;26;20221;-64
2024/04/16 06:48:10;;;;;;;1.33;1.23;;;5.00;98.70;;;;;;5416186;26;20216;-64
2024/04/16 06:50:35;;;;;;;1.43;1.00;;;5.10;98.20;;;;;;5415826;26;20726;-64
2024/04/16 06:53:01;;;;;;;3.90;1.00;;;5.30;97.60;;;;;;5415973;26;20217;-64
2024/04/16 06:55:29;;;;;;;2.77;0.90;;;5.40;96.80;;;;;;5416367;26;20266;-64
2024/04/16 06:57:55;;;;;;;1.73;1.50;;;5.50;97.40;;;;;;5416003;26;20257;-64
2024/04/16 07:00:21;;;;;;;0.98;0.80;;;5.50;96.10;;;;;;5415661;26;20320;-64
2024/04/16 07:02:47;;;;;;;0.73;0.73;;;5.20;96.00;;;;;;5416199;26;20221;-64
2024/04/16 07:05:13;;;;;;;5.18;1.60;;;5.20;96.40;;;;;;5416065;26;20598;-65
2024/04/16 07:07:39;;;;;;;4.40;1.07;;;5.20;97.00;;;;;;5416030;26;20227;-64
2024/04/16 07:10:05;;;;;;;2.60;1.30;;;5.30;96.40;;;;;;5415656;26;20283;-65
2024/04/16 07:12:31;;;;;;;2.35;1.35;;;5.30;96.30;;;;;;5416139;26;20705;-64
2024/04/16 07:14:56;;;;;;;2.37;1.30;;;5.40;96.10;;;;;;5415952;26;20263;-64
2024/04/16 07:17:22;;;;;;;3.00;1.37;;;5.40;95.80;;;;;;5415937;26;20227;-64
2024/04/16 07:19:49;;;;;;;1.43;0.93;;;5.50;96.10;;;;;;5414394;26;20336;-64
2024/04/16 07:22:14;;;;;;;2.95;0.98;;;5.50;95.40;;;;;;5415694;26;20215;-64
2024/04/16 07:24:40;;;;;;;4.43;2.63;;;5.30;95.70;;;;;;5415910;26;20216;-64
2024/04/16 07:27:05;;;;;;;1.93;1.40;;;5.30;95.60;;;;;;5415823;26;20219;-64
2024/04/16 07:29:31;;;;;;;6.20;1.90;;;5.40;96.50;;;;;;5415494;26;20223;-65
2024/04/16 07:31:57;;;;;;;2.40;1.53;;;5.40;96.00;;;;;;5415284;26;20211;-64
2024/04/16 07:34:22;;;;;;;2.37;1.53;;;5.60;96.20;;;;;;5415647;26;20216;-64
2024/04/16 07:36:51;;;;;;;5.47;2.63;;;5.80;95.30;;;;;;5415531;26;20344;-65
2024/04/16 07:39:16;;;;;;;3.88;1.10;;;5.80;95.60;;;;;;5384140;26;20247;-64
2024/04/16 07:41:44;;;;;;;1.43;1.00;;;6.00;96.80;;;;;;5415222;26;20609;-65
2024/04/16 07:44:10;;;;;;;5.15;1.33;;;5.50;94.40;;;;;;5415415;26;20275;-64
2024/04/16 07:46:36;;;;;;;5.60;1.20;;;5.50;95.20;;;;;;5415500;26;20263;-64
2024/04/16 07:49:01;;;;;;;1.43;1.20;;;5.30;96.00;;;;;;5415190;26;20461;-64
2024/04/16 07:51:27;;;;;;;2.23;1.00;;;5.40;95.70;;;;;;5415146;26;20535;-64
2024/04/16 07:53:53;;;;;;;1.63;0.98;;;5.60;95.30;;;;;;5384109;26;20227;-64
2024/04/16 07:56:19;;;;;;;0.83;0.83;;;5.70;95.40;;;;;;5415325;26;20216;-64
2024/04/16 07:58:44;;;;;;;5.07;1.87;;;5.60;96.00;;;;;;5415284;26;20232;-64
2024/04/16 08:01:10;;;;;;;2.50;1.60;;;5.70;96.20;;;;;;5414879;26;20312;-65
2024/04/16 08:03:35;;;;;;;2.60;1.23;;;5.70;95.80;;;;;;5415259;26;20324;-64
2024/04/16 08:06:01;;;;;;;2.43;0.80;;;5.50;95.70;;;;;;5414934;26;20293;-64
2024/04/16 08:08:27;;;;;;;1.93;1.10;;;5.30;95.80;;;;;;5415294;26;20220;-65
2024/04/16 08:10:52;;;;;;;2.27;1.10;;;5.30;96.30;;;;;;5414696;26;20753;-65
2024/04/16 08:13:18;;;;;;;3.90;1.23;;;5.50;96.50;;;;;;5414982;26;20215;-64
2024/04/16 08:15:44;;;;;;;4.73;1.37;;;5.70;96.10;;;;;;5415026;26;20262;-64
2024/04/16 08:18:10;;;;;;;3.92;1.77;;;5.80;97.10;;;;;;5414943;26;20215;-64
2024/04/16 08:20:36;;;;;;;3.93;1.13;;;6.00;96.10;;;;;;5414313;26;20275;-64
2024/04/16 08:23:01;;;;;;;2.50;1.17;;;6.10;95.80;;;;;;5414986;26;20446;-64
2024/04/16 08:25:27;;;;;;;1.80;1.27;;;5.90;94.70;;;;;;5415001;26;20264;-64
2024/04/16 08:27:53;;;;;;;2.97;1.23;;;6.40;95.30;;;;;;5414746;26;20254;-64
2024/04/16 08:30:18;;;;;;;3.80;1.37;;;7.60;94.10;;;;;;5415368;26;20228;-65
2024/04/16 08:32:45;;;;;;;5.60;1.37;;;8.30;92.60;;;;;;5418364;26;20212;-65
2024/04/16 08:35:22;;;;;;;4.03;2.28;;;8.70;92.30;;;;;;5418201;26;20227;-64
2024/04/16 08:37:47;;;;;;;2.15;1.80;;;8.70;91.10;;;;;;5418205;26;20286;-64
2024/04/16 08:40:14;;;;;;;4.30;1.20;;;8.80;90.40;;;;;;5417617;26;20228;-65
2024/04/16 08:42:41;;;;;;;3.10;1.27;;;8.80;89.20;;;;;;5417991;26;20219;-65
2024/04/16 08:45:10;;;;;;;3.75;2.10;;;8.90;90.50;;;;;;5418194;26;20304;-64
2024/04/16 08:47:37;;;;;;;2.95;1.13;;;9.20;90.70;;;;;;5417996;26;20227;-64
2024/04/16 08:50:03;;;;;;;1.42;1.10;;;9.20;89.60;;;;;;5417627;26;20244;-64
2024/04/16 08:52:32;;;;;;;9.60;1.60;;;9.60;88.80;;;;;;5417980;26;20324;-65
2024/04/16 08:54:58;;;;;;;3.10;1.37;;;9.90;88.90;;;;;;5418301;26;20219;-65
2024/04/16 08:57:26;;;;;;;4.03;2.03;;;10.40;87.60;;;;;;5418234;26;20446;-64
2024/04/16 08:59:51;;;;;;;1.30;1.20;;;10.40;83.90;;;;;;5417832;26;20461;-65
2024/04/16 09:02:19;;;;;;;1.93;1.00;;;10.80;83.10;;;;;;5416945;26;20511;-65
2024/04/16 09:04:47;;;;;;;3.70;0.80;;;11.30;83.10;;;;;;5418146;26;20336;-64
2024/04/16 09:07:13;;;;;;;4.47;1.03;;;12.10;79.30;;;;;;5417425;26;20464;-64
2024/04/16 09:09:39;;;;;;;6.80;1.20;;;12.00;75.70;;;;;;5417144;26;20465;-65
2024/04/16 09:12:05;;;;;;;1.13;0.80;;;11.70;76.80;;;;;;5385871;26;20895;-63
2024/04/16 09:14:31;;;;;;;1.33;0.83;;;11.10;79.00;;;;;;5417623;26;20253;-63
2024/04/16 09:16:56;;;;;;;1.38;1.27;;;11.50;82.70;;;;;;5417382;26;20352;-64
2024/04/16 09:19:26;;;;;;;9.10;1.70;;;12.60;76.60;;;;;;5417428;26;20227;-65
2024/04/16 09:22:01;;;;;;;2.13;1.00;;;13.40;72.90;;;;;;5417385;26;20224;-65
2024/04/16 09:24:27;;;;;;;3.37;0.80;;;14.00;71.30;;;;;;5417602;26;20444;-66
2024/04/16 09:26:52;;;;;;;4.10;1.57;;;14.40;70.80;;;;;;5417448;26;21058;-64
2024/04/16 09:29:25;;;;;;;3.10;0.77;;;15.30;72.20;;;;;;5444081;21;20271;-64
2024/04/16 09:32:03;;;;;;;1.73;0.80;;;16.70;66.00;;;;;;5454029;26;20234;-64
2024/04/16 09:34:31;;;;;;;2.30;0.90;;;16.90;59.30;;;;;;5453125;26;20520;-64
2024/04/16 09:36:56;;;;;;;1.00;0.93;;;16.40;58.20;;;;;;5452965;26;20457;-64
2024/04/16 09:39:23;;;;;;;3.03;1.27;;;15.70;58.20;;;;;;5452772;26;20467;-64
2024/04/16 09:41:50;;;;;;;5.33;1.33;;;14.70;61.00;;;;;;5451656;26;20226;-64
2024/04/16 09:44:16;;;;;;;2.40;1.07;;;14.30;66.20;;;;;;5452822;26;20573;-64
2024/04/16 09:46:47;;;;;;;3.00;1.20;;;14.10;64.30;;;;;;5452841;26;20533;-64
2024/04/16 09:49:16;;;;;;;3.70;1.30;;;14.90;66.40;;;;;;5452682;26;20463;-65
2024/04/16 09:51:43;;;;;;;0.80;0.70;;;15.60;61.60;;;;;;5452467;26;20878;-63
2024/04/16 09:54:11;;;;;;;1.33;1.20;;;15.60;59.10;;;;;;5453051;26;20827;-65
2024/04/16 09:56:43;;;;;;;2.57;1.27;;;15.10;60.50;;;;;;5452854;26;20792;-63
2024/04/16 09:59:12;;;;;;;1.87;1.17;;;14.90;62.10;;;;;;5452714;26;20579;-64
2024/04/16 10:01:38;;;;;;;4.23;1.10;;;15.10;59.70;;;;;;5452584;26;20440;-64
2024/04/16 10:04:06;;;;;;;2.77;1.20;;;15.20;60.50;;;;;;5452730;26;20436;-64
2024/04/16 10:06:32;;;;;;;4.70;1.23;;;15.90;64.60;;;;;;5452264;26;20455;-64
2024/04/16 10:08:58;;;;;;;1.03;0.90;;;16.30;58.40;;;;;;5452555;26;20942;-63
2024/04/16 10:11:24;;;;;;;1.37;1.23;;;16.60;56.30;;;;;;5452534;26;20222;-64
2024/04/16 10:13:52;;;;;;;4.23;1.20;;;15.50;57.20;;;;;;5452678;26;20260;-64
2024/04/16 10:16:18;;;;;;;2.00;1.00;;;14.60;59.10;;;;;;5421107;26;20514;-64
2024/04/16 10:18:56;;;;;;;1.80;0.77;;;14.00;59.50;;;;;;5452865;26;20435;-64
2024/04/16 10:21:26;;;;;;;3.70;1.27;;;14.00;59.40;;;;;;5452171;26;20444;-63
2024/04/16 10:24:01;;;;;;;3.97;1.40;;;13.70;59.90;;;;;;5452544;26;20889;-64
2024/04/16 10:26:29;;;;;;;4.07;0.80;;;13.60;62.10;;;;;;5452460;26;20496;-64
2024/04/16 10:28:56;;;;;;;0.87;0.73;;;13.50;64.80;;;;;;5452255;26;20503;-64
2024/04/16 10:31:33;;;;;;;2.90;1.20;;;13.40;66.50;;;;;;5452253;26;20500;-64
2024/04/16 10:34:02;;;;;;;3.47;1.50;;;13.60;67.40;;;;;;5452530;26;20439;-65
2024/04/16 10:36:28;;;;;;;4.40;1.50;;;13.50;67.40;;;;;;5452328;26;20444;-63
2024/04/16 10:38:55;;;;;;;5.03;1.50;;;13.70;69.00;;;;;;5452154;26;20500;-64
2024/04/16 10:41:28;;;;;;;4.47;1.00;;;13.80;66.10;;;;;;5452060;26;21045;-64
2024/04/16 10:43:57;;;;;;;5.33;1.57;;;13.50;68.60;;;;;;5452535;26;20448;-64
2024/04/16 10:46:23;;;;;;;1.37;1.00;;;13.40;70.70;;;;;;5452123;26;21056;-64
2024/04/16 10:48:50;;;;;;;5.10;0.97;;;13.30;71.10;;;;;;5449025;26;20448;-63
2024/04/16 10:51:16;;;;;;;3.57;1.03;;;13.60;69.60;;;;;;5425314;26;20457;-64
2024/04/16 10:53:42;;;;;;;2.53;1.07;;;13.50;69.00;;;;;;5450210;26;20493;-64
2024/04/16 10:56:08;;;;;;;2.93;1.60;;;13.50;67.00;;;;;;5451875;26;20209;-64
2024/04/16 10:58:34;;;;;;;1.07;0.70;;;13.20;65.90;;;;;;5452134;26;20565;-63
2024/04/16 11:01:01;;;;;;;3.23;1.53;;;12.80;65.70;;;;;;5451546;26;20465;-63
2024/04/16 11:03:27;;;;;;;1.73;1.40;;;12.20;68.80;;;;;;5451998;26;20561;-63
2024/04/16 11:05:56;;;;;;;4.57;4.10;;;12.10;71.10;;;;;;5451940;26;20460;-63
2024/04/16 11:08:22;;;;;;;1.27;0.80;;;12.20;72.40;;;;;;5420179;26;20444;-63
2024/04/16 11:10:49;;;;;;;6.93;1.43;;;12.30;72.70;;;;;;5451742;26;20504;-63
2024/04/16 11:13:21;;;;;;;1.93;0.80;;;12.10;72.80;;;;;;5451777;26;20459;-63
2024/04/16 11:15:47;;;;;;;0.90;0.90;;;12.40;73.30;;;;;;5451708;26;20503;-64
2024/04/16 11:18:13;;;;;;;3.10;0.93;;;12.70;73.70;;;;;;5451980;26;20436;-64
2024/04/16 11:20:39;;;;;;;2.67;0.87;;;12.70;72.70;;;;;;5451157;26;20277;-63
2024/04/16 11:23:05;;;;;;;1.47;1.00;;;12.10;72.40;;;;;;5451746;26;20222;-63
2024/04/16 11:25:31;;;;;;;3.33;0.90;;;11.90;71.30;;;;;;5451704;26;20582;-63
2024/04/16 11:27:57;;;;;;;1.37;0.50;;;11.80;70.80;;;;;;5451517;26;20214;-64
2024/04/16 11:30:24;;;;;;;3.67;1.37;;;11.70;74.00;;;;;;5451175;26;20448;-64
2024/04/16 11:32:50;;;;;;;1.43;0.80;;;11.80;72.90;;;;;;5451501;26;20444;-64
2024/04/16 11:35:16;;;;;;;3.10;1.67;;;11.90;70.10;;;;;;5451651;26;20443;-64
2024/04/16 11:37:45;;;;;;;2.57;1.10;;;12.20;73.20;;;;;;5451475;26;20483;-64
2024/04/16 11:40:11;;;;;;;2.30;0.93;;;12.30;68.40;;;;;;5450766;26;20265;-64
2024/04/16 11:42:38;;;;;;;1.57;0.80;;;12.20;68.00;;;;;;5451294;26;20490;-64
2024/04/16 11:45:05;;;;;;;1.50;0.57;;;12.00;69.90;;;;;;5451537;26;20440;-63
2024/04/16 11:47:30;;;;;;;1.77;0.83;;;12.10;68.40;;;;;;5451309;26;21087;-64
2024/04/16 11:49:57;;;;;;;2.63;1.10;;;12.10;68.60;;;;;;5450233;26;20464;-63
2024/04/16 11:52:23;;;;;;;1.27;0.63;;;11.90;69.30;;;;;;5449043;26;20280;-64
2024/04/16 11:54:49;;;;;;;2.03;1.00;;;11.50;70.00;;;;;;5451176;26;21093;-63
2024/04/16 11:57:14;;;;;;;2.13;1.07;;;11.30;71.60;;;;;;5451162;26;20440;-63
2024/04/16 11:59:40;;;;;;;1.43;0.70;;;11.10;72.50;;;;;;5451162;26;20230;-64
2024/04/16 12:02:06;;;;;;;0.90;0.90;;;10.80;71.20;;;;;;5448177;26;20227;-65
2024/04/16 12:04:32;;;;;;;1.80;0.70;;;10.30;74.60;;;;;;5451422;26;20214;-65
2024/04/16 12:06:58;;;;;;;0.70;0.70;;;10.20;77.90;;;;;;5458738;26;21032;-65
2024/04/16 12:09:23;;;;;;;0.80;0.80;;;10.30;77.80;;;;;;5458337;26;20230;-65
2024/04/16 12:11:50;;;;;;;2.17;0.80;;;10.40;77.40;;;;;;5426716;26;20685;-65
2024/04/16 12:14:16;;;;;;;0.80;0.80;;;10.30;77.30;;;;;;5458766;26;20976;-65
2024/04/16 12:16:42;;;;;;;2.73;0.70;;;10.40;77.80;;;;;;5459023;26;20264;-65
2024/04/16 12:19:08;;;;;;;1.10;1.00;;;10.60;78.60;;;;;;5458567;26;20257;-64
2024/04/16 12:21:34;;;;;;;2.67;0.97;;;10.70;77.10;;;;;;5458509;26;20214;-64
2024/04/16 12:23:59;;;;;;;2.30;1.60;;;10.80;75.80;;;;;;5458483;26;21054;-64
2024/04/16 12:26:25;;;;;;;1.53;0.77;;;10.70;76.40;;;;;;5458256;26;20225;-64
2024/04/16 12:28:55;;;;;;;4.17;1.30;;;10.50;79.00;;;;;;5458371;26;20263;-63
2024/04/16 12:31:22;;;;;;;1.17;0.90;;;10.40;78.20;;;;;;5457626;26;20439;-63
2024/04/16 12:33:47;;;;;;;2.27;1.23;;;10.60;81.40;;;;;;5458399;26;20696;-63
2024/04/16 12:36:14;;;;;;;1.93;0.83;;;10.70;79.90;;;;;;5458383;26;20443;-63
2024/04/16 12:38:40;;;;;;;1.77;1.30;;;10.50;80.40;;;;;;5458214;26;20277;-63
2024/04/16 12:41:05;;;;;;;0.77;0.75;;;10.20;81.30;;;;;;5457685;26;20311;-63
2024/04/16 12:43:31;;;;;;;0.77;0.77;;;10.10;83.40;;;;;;5458306;26;20657;-63
2024/04/16 12:45:59;;;;;;;4.93;0.93;;;10.00;82.30;;;;;;5458127;26;20257;-63
2024/04/16 12:48:30;;;;;;;2.70;1.50;;;10.20;85.60;;;;;;5458250;26;20265;-63
2024/04/16 12:50:56;;;;;;;3.90;1.88;;;10.60;87.10;;;;;;5457548;26;20707;-63